This is the latest recevied weather packets stored in our database for station/object K7TUS-6. If no packets are shown the sender has not sent any weather packets the latest 10 day(s).
| Time | Temp. | Humidity | Pressure | Rain* | Wind** | Luminosity | Snow |
|---|---|---|---|---|---|---|---|
| 1777699804 | 7.78° C | 15% | 983.6 hPa | - | - | - | - |
| 1777699504 | 7.78° C | 16% | 983.8 hPa | - | - | - | - |
| 1777699203 | 7.78° C | 16% | 983.4 hPa | - | - | - | - |
| 1777698909 | 7.78° C | 16% | 983.5 hPa | - | - | - | - |
| 1777698608 | 8.33° C | 15% | 983.4 hPa | - | - | - | - |
| 1777698308 | 8.33° C | 13% | 982.5 hPa | - | - | - | - |
| 1777697707 | 8.89° C | 11% | 983 hPa | - | - | - | - |
| 1777697406 | 8.33° C | 13% | 983.1 hPa | - | - | - | - |
| 1777696806 | 8.89° C | 13% | 983.2 hPa | - | - | - | - |
| 1777696505 | 8.89° C | 13% | 984 hPa | - | - | - | - |
| 1777696204 | 8.33° C | 14% | 983.6 hPa | - | - | - | - |
| 1777695604 | 8.33° C | 15% | 983.3 hPa | - | - | - | - |
| 1777695309 | 8.33° C | 14% | 983.4 hPa | - | - | - | - |
| 1777695009 | 7.78° C | 14% | 983.3 hPa | - | - | - | - |
| 1777694708 | 8.33° C | 14% | 982.8 hPa | - | - | - | - |
| 1777694107 | 8.33° C | 13% | 983.6 hPa | - | - | - | - |
| 1777693807 | 8.33° C | 13% | 982.9 hPa | - | - | - | - |
| 1777693206 | 8.89° C | 11% | 983.1 hPa | - | - | - | - |
| 1777692910 | 8.33° C | 12% | 982.7 hPa | - | - | - | - |
| 1777692605 | 8.33° C | 12% | 982.6 hPa | - | - | - | - |
| 1777692317 | 8.33° C | 12% | 982.5 hPa | - | - | - | - |
| 1777692003 | 8.33° C | 10% | 983 hPa | - | - | - | - |
| 1777691703 | 8.89° C | 10% | 982 hPa | - | - | - | - |
| 1777690808 | 10° C | 5% | 981.9 hPa | - | - | - | - |
| 1777690508 | 9.44° C | 6% | 982.3 hPa | - | - | - | - |
* Rain since midnight (hover to see other rain measurements)
** Current wind speed in m/s (hover to see current wind gust speed)